Chitral Weather



Chitral's Current Weather

Temprature 25.01o clear sky

clear sky

Rain: 0 %

Min Temprature25.01o
Max Temprature25.01o
Humidity23
Wind Speed1.21 m/h
Sun Rise05:13:37
Sun Set19:05:06
Current Time: 08-May-2021 15:30:16
Lat/Lon: 35.8462, 71.7858




Chitral's Geo Location



Chitral's Weather Forecast

Time Overall Temp Min Temp Max Temp Humidity Wind Speed Rain
08-May-2021 (Sat)
17:00:00 clear sky 24.840 24.840 24.840 24 1.67 m/h 0 %
20:00:00 clear sky 23.440 20.630 23.440 32 1.84 m/h 0 %
23:00:00 light rain 20.810 18.790 20.810 41 1.95 m/h 12 %
09-May-2021 (Sun)
02:00:00 clear sky 17.340 17.340 17.340 48 2.34 m/h 0 %
05:00:00 clear sky 16.160 16.160 16.160 49 2.5 m/h 0 %
08:00:00 clear sky 20.000 20.000 20.000 36 1.67 m/h 0 %
11:00:00 clear sky 23.420 23.420 23.420 26 0.87 m/h 0 %
14:00:00 clear sky 25.700 25.700 25.700 22 2.23 m/h 0 %
17:00:00 clear sky 25.880 25.880 25.880 23 2.56 m/h 0 %
20:00:00 clear sky 22.360 22.360 22.360 48 2.62 m/h 0 %
23:00:00 light rain 20.150 20.150 20.150 57 1.18 m/h 12 %
10-May-2021 (Mon)
02:00:00 light rain 19.080 19.080 19.080 57 1.32 m/h 22 %
05:00:00 light rain 17.870 17.870 17.870 55 1.49 m/h 11 %
08:00:00 scattered clouds 21.340 21.340 21.340 41 0.26 m/h 0 %
11:00:00 few clouds 24.490 24.490 24.490 37 2.3 m/h 0 %
14:00:00 light rain 26.560 26.560 26.560 32 3.59 m/h 17 %
17:00:00 light rain 19.800 19.800 19.800 60 2.55 m/h 212 %
20:00:00 light rain 20.010 20.010 20.010 59 2.58 m/h 58 %
23:00:00 light rain 19.420 19.420 19.420 64 0.41 m/h 26 %
11-May-2021 (Tue)
02:00:00 overcast clouds 19.010 19.010 19.010 65 0.79 m/h 0 %
05:00:00 light rain 18.330 18.330 18.330 63 0.83 m/h 13 %
08:00:00 light rain 20.500 20.500 20.500 52 1.67 m/h 42 %
11:00:00 light rain 23.030 23.030 23.030 46 3.89 m/h 109 %
14:00:00 light rain 21.210 21.210 21.210 56 2.71 m/h 204 %
17:00:00 moderate rain 16.910 16.910 16.910 81 0.77 m/h 572 %
20:00:00 moderate rain 15.200 15.200 15.200 90 0.47 m/h 492 %
23:00:00 light rain 15.420 15.420 15.420 85 1.15 m/h 232 %
12-May-2021 (Wed)
02:00:00 light rain 15.790 15.790 15.790 80 0.93 m/h 30 %
05:00:00 light rain 15.680 15.680 15.680 78 0.51 m/h 69 %
08:00:00 light rain 15.850 15.850 15.850 71 2.21 m/h 62 %
11:00:00 light rain 17.090 17.090 17.090 62 2.31 m/h 69 %
14:00:00 light rain 18.130 18.130 18.130 61 1.57 m/h 74 %
17:00:00 light rain 19.610 19.610 19.610 54 1.42 m/h 54 %
20:00:00 light rain 17.990 17.990 17.990 62 0.77 m/h 128 %
23:00:00 light rain 16.720 16.720 16.720 61 0.99 m/h 49 %
13-May-2021 (Thu)
02:00:00 overcast clouds 15.630 15.630 15.630 59 1.72 m/h 0 %
05:00:00 overcast clouds 15.650 15.650 15.650 57 1.57 m/h 0 %
08:00:00 overcast clouds 17.800 17.800 17.800 43 1.07 m/h 0 %
11:00:00 overcast clouds 20.490 20.490 20.490 37 2.01 m/h 0 %
14:00:00 overcast clouds 22.130 22.130 22.130 36 3.09 m/h 0 %

Famous Cities (60)